Time;durP1;ratioP1;P1;durP2;ratioP2;P2;SDS_P1;SDS_P2;PMS_P1;PMS_P2;Temp;Humidity;BMP_temperature;BMP_pressure;BME280_temperature;BME280_humidity;BME280_pressure;Samples;Min_cycle;Max_cycle;Signal;HPM_P1;HPM_P2
2020/12/05 00:00:04;;;;;;;9.00;5.13;;;3.70;99.90;;;3.27;81.48;98505.38;4201820;28;20112;-74
2020/12/05 00:02:04;;;;;;;7.43;5.50;;;3.60;99.90;;;3.25;82.13;98502.16;4203035;28;20502;-74
2020/12/05 00:04:05;;;;;;;6.05;4.28;;;3.60;99.90;;;3.21;81.31;98490.41;4193829;28;20060;-74
2020/12/05 00:06:06;;;;;;;6.93;5.18;;;3.60;99.90;;;3.22;80.44;98492.06;4184795;28;20120;-74
2020/12/05 00:08:08;;;;;;;5.93;5.32;;;3.60;99.90;;;3.28;79.71;98491.41;4186185;28;20032;-74
2020/12/05 00:10:09;;;;;;;7.85;5.28;;;3.60;99.90;;;3.17;80.11;98503.91;4185201;28;20527;-74
2020/12/05 00:12:10;;;;;;;7.13;5.78;;;3.60;99.90;;;2.96;81.23;98496.59;4184965;28;20044;-74
2020/12/05 00:14:11;;;;;;;7.53;5.93;;;3.40;99.90;;;3.14;80.65;98489.44;4185000;28;20040;-74
2020/12/05 00:16:14;;;;;;;7.40;5.65;;;3.40;99.90;;;3.30;81.21;98502.47;4185473;28;20411;-75
2020/12/05 00:18:18;;;;;;;10.25;5.45;;;3.40;99.90;;;3.43;80.80;98498.53;4190546;28;20040;-74
2020/12/05 00:20:19;;;;;;;9.33;5.60;;;3.50;99.90;;;3.34;81.17;98498.53;4201565;28;20021;-74
2020/12/05 00:22:20;;;;;;;10.60;6.57;;;3.60;99.90;;;3.34;80.98;98495.91;4201096;28;20044;-74
2020/12/05 00:24:21;;;;;;;12.13;7.38;;;3.60;99.90;;;3.24;80.36;98500.50;4202501;28;20527;-74
2020/12/05 00:26:22;;;;;;;36.13;18.35;;;3.50;99.90;;;3.03;80.16;98479.34;4202670;28;20032;-74
2020/12/05 00:28:23;;;;;;;45.90;24.17;;;3.50;99.90;;;3.13;80.42;98500.03;4202621;28;20384;-74
2020/12/05 00:30:28;;;;;;;45.22;21.42;;;3.40;99.90;;;3.01;79.80;98483.94;4202526;28;20107;-74
2020/12/05 00:32:29;;;;;;;36.80;18.88;;;3.40;99.90;;;2.76;80.54;98477.88;4200355;28;20032;-74
2020/12/05 00:34:30;;;;;;;31.70;17.02;;;3.30;99.90;;;2.85;80.63;98483.09;4201270;28;20029;-74
2020/12/05 00:36:31;;;;;;;28.25;14.85;;;3.20;99.90;;;2.72;81.35;98479.19;4201072;28;20024;-74
2020/12/05 00:38:32;;;;;;;18.70;11.40;;;3.20;99.90;;;2.65;81.94;98477.41;4201258;28;20028;-74
2020/12/05 00:40:33;;;;;;;16.50;9.25;;;3.10;99.90;;;2.62;82.16;98486.34;4201124;28;20048;-74
2020/12/05 00:42:34;;;;;;;13.48;9.02;;;3.10;99.90;;;2.74;80.29;98481.63;4202291;28;20830;-74
2020/12/05 00:44:35;;;;;;;15.05;9.90;;;3.10;99.90;;;2.67;81.71;98496.25;4202276;28;20582;-74
2020/12/05 00:46:41;;;;;;;11.48;8.52;;;3.10;99.90;;;2.54;81.89;98488.91;4201106;28;20538;-74
2020/12/05 00:48:42;;;;;;;9.85;7.38;;;3.00;99.90;;;2.53;81.76;98499.50;4200983;28;20024;-74
2020/12/05 00:50:43;;;;;;;9.23;6.22;;;3.00;99.90;;;2.49;81.07;98493.78;4200608;28;20036;-74
2020/12/05 00:52:44;;;;;;;12.32;7.63;;;3.00;99.90;;;2.41;80.87;98500.78;4209407;28;20107;-74
2020/12/05 00:54:45;;;;;;;12.98;8.95;;;2.90;99.90;;;2.53;80.84;98502.09;4200905;28;20159;-74
2020/12/05 00:56:46;;;;;;;14.82;10.57;;;2.90;99.90;;;2.43;81.25;98504.84;4202038;28;20021;-74
2020/12/05 00:58:47;;;;;;;10.88;7.95;;;2.90;99.90;;;2.45;80.83;98502.09;4200678;28;20029;-74
2020/12/05 01:00:49;;;;;;;15.60;9.00;;;2.90;99.90;;;2.36;81.00;98503.03;4200733;28;20033;-74
2020/12/05 01:02:50;;;;;;;27.20;16.60;;;2.80;99.90;;;2.48;80.62;98499.16;4198481;28;20020;-74
2020/12/05 01:04:51;;;;;;;26.77;16.70;;;2.80;99.90;;;2.46;80.13;98503.69;4198750;28;20032;-74
2020/12/05 01:06:52;;;;;;;24.48;15.30;;;2.80;99.90;;;2.26;80.49;98502.34;4200547;28;20415;-74
2020/12/05 01:08:53;;;;;;;19.02;8.55;;;2.70;99.90;;;2.38;80.87;98499.31;4201905;28;20029;-74
2020/12/05 01:10:54;;;;;;;11.02;6.53;;;2.70;99.90;;;2.36;81.48;98508.25;4201764;28;20558;-74
2020/12/05 01:12:55;;;;;;;8.25;5.65;;;2.80;99.90;;;2.07;83.11;98506.03;4200496;28;20036;-74
2020/12/05 01:15:01;;;;;;;14.25;7.75;;;2.70;99.90;;;2.04;83.91;98522.75;4205135;28;20036;-74
2020/12/05 01:17:02;;;;;;;7.90;6.32;;;2.70;99.90;;;1.90;83.59;98502.56;4200443;28;20020;-74
2020/12/05 01:19:03;;;;;;;10.13;6.82;;;2.60;99.90;;;2.12;83.27;98512.38;4201792;28;20035;-74
2020/12/05 01:21:10;;;;;;;8.02;6.97;;;2.60;99.90;;;1.97;83.92;98500.16;4200202;28;20626;-74
2020/12/05 01:23:12;;;;;;;9.63;7.47;;;2.50;99.90;;;1.84;84.60;98510.16;4200668;28;20523;-74
2020/12/05 01:25:12;;;;;;;11.07;8.30;;;2.50;99.90;;;1.96;84.32;98517.53;4200597;28;20034;-74
2020/12/05 01:27:14;;;;;;;8.02;6.05;;;2.50;99.90;;;1.91;84.04;98509.34;4183840;28;20123;-74
2020/12/05 01:29:14;;;;;;;10.20;7.13;;;2.50;99.90;;;1.85;83.91;98515.19;4201568;28;20032;-74
2020/12/05 01:31:15;;;;;;;9.77;6.93;;;2.50;99.90;;;1.99;83.58;98511.19;4217003;28;20085;-74
2020/12/05 01:33:16;;;;;;;9.60;7.72;;;2.50;99.90;;;1.91;83.85;98509.34;4201657;28;20099;-74
2020/12/05 01:35:17;;;;;;;13.38;7.63;;;2.50;99.90;;;1.98;83.04;98515.56;4200412;28;20029;-74
2020/12/05 01:37:18;;;;;;;11.90;7.47;;;2.50;99.90;;;2.09;82.17;98512.69;4183282;28;20056;-74
2020/12/05 01:39:19;;;;;;;9.10;7.07;;;2.40;99.90;;;2.11;82.66;98515.97;4200472;28;20090;-74
2020/12/05 01:41:20;;;;;;;10.93;7.40;;;2.50;99.90;;;2.11;82.64;98513.38;4201603;28;20032;-74
2020/12/05 01:43:21;;;;;;;9.82;7.75;;;2.50;99.90;;;2.16;82.20;98508.50;4200253;28;20024;-74
2020/12/05 01:45:22;;;;;;;9.90;7.07;;;2.40;99.90;;;2.08;82.95;98516.28;4200253;28;20044;-74
2020/12/05 01:47:27;;;;;;;9.40;6.85;;;2.40;99.90;;;2.15;82.40;98506.84;4200047;28;20067;-74
2020/12/05 01:49:29;;;;;;;8.93;6.53;;;2.40;99.90;;;2.14;82.44;98522.63;4200302;28;20111;-74
2020/12/05 01:51:31;;;;;;;12.77;7.50;;;2.50;99.90;;;2.14;81.79;98520.84;4200063;28;20533;-74
2020/12/05 01:53:32;;;;;;;12.60;8.32;;;2.50;99.90;;;1.99;82.42;98506.81;4200168;28;20046;-74
2020/12/05 01:55:33;;;;;;;9.20;7.32;;;2.50;99.90;;;2.03;82.21;98513.31;4201455;28;20085;-74
2020/12/05 01:57:34;;;;;;;9.93;6.85;;;2.40;99.90;;;1.95;82.34;98495.09;4200305;28;20495;-74
2020/12/05 01:59:35;;;;;;;12.68;8.10;;;2.40;99.90;;;2.05;82.29;98501.00;4201460;28;20079;-74
2020/12/05 02:01:38;;;;;;;15.40;9.00;;;2.40;99.90;;;2.04;82.88;98504.56;4200202;28;20036;-74
2020/12/05 02:03:39;;;;;;;10.07;7.10;;;2.40;99.90;;;1.87;83.86;98494.25;4192907;28;20025;-74
2020/12/05 02:06:13;;;;;;;10.27;7.13;;;2.40;99.90;;;1.89;84.26;98500.91;4201093;28;20059;-74
2020/12/05 02:08:29;;;;;;;9.93;8.05;;;2.40;99.90;;;1.94;83.90;98503.06;4200041;28;20029;-74
2020/12/05 02:10:39;;;;;;;9.63;7.03;;;2.40;99.90;;;1.98;84.40;98514.75;4184037;28;20041;-74
2020/12/05 02:12:47;;;;;;;9.00;7.13;;;2.40;99.90;;;2.06;84.47;98523.41;4199907;28;20067;-74
2020/12/05 02:14:55;;;;;;;11.05;7.15;;;2.50;99.90;;;2.01;84.85;98499.66;4201098;28;20162;-74
2020/12/05 02:17:04;;;;;;;11.15;8.75;;;2.50;99.90;;;2.04;84.44;98504.56;4201260;28;20036;-74
2020/12/05 02:19:08;;;;;;;10.55;7.60;;;2.50;99.90;;;1.88;85.40;98509.66;4199889;28;20064;-75
2020/12/05 02:21:12;;;;;;;11.52;6.80;;;2.40;99.90;;;1.78;85.39;98503.78;4199744;28;20021;-74
2020/12/05 02:23:14;;;;;;;14.77;8.80;;;2.50;99.90;;;1.81;85.07;98490.50;4216837;28;20039;-74
2020/12/05 02:25:16;;;;;;;12.65;8.63;;;2.40;99.90;;;1.80;85.16;98495.81;4199887;28;20032;-74
2020/12/05 02:27:17;;;;;;;10.82;7.25;;;2.40;99.90;;;1.81;85.25;98498.28;4194956;28;20501;-75
2020/12/05 02:29:19;;;;;;;13.15;8.60;;;2.40;99.90;;;2.10;83.43;98506.53;4183162;28;20496;-74
2020/12/05 02:31:20;;;;;;;12.85;8.32;;;2.40;99.90;;;2.05;83.84;98500.16;4199809;28;20036;-74
2020/12/05 02:33:22;;;;;;;10.20;7.75;;;2.40;99.90;;;2.12;84.02;98496.78;4216610;28;20032;-74
2020/12/05 02:35:23;;;;;;;13.38;7.20;;;2.50;99.90;;;1.97;84.76;98489.75;4200922;28;20039;-75
2020/12/05 02:37:29;;;;;;;9.68;6.47;;;2.40;99.90;;;1.91;84.69;98467.75;4199799;28;20456;-74
2020/12/05 02:39:30;;;;;;;12.30;7.13;;;2.50;99.90;;;2.07;85.29;98483.44;4199948;28;20475;-74
2020/12/05 02:41:38;;;;;;;10.32;7.43;;;2.50;99.90;;;2.23;85.00;98493.91;4199778;28;20024;-75
2020/12/05 02:43:39;;;;;;;10.88;6.97;;;2.60;99.90;;;2.33;85.05;98488.53;4216519;28;20028;-74
2020/12/05 02:45:41;;;;;;;9.73;7.20;;;2.70;99.90;;;2.24;85.44;98487.72;4199801;28;20540;-74
2020/12/05 02:47:41;;;;;;;11.55;8.18;;;2.70;99.90;;;2.33;84.61;98498.94;4201103;28;20119;-74
2020/12/05 02:49:43;;;;;;;9.48;6.70;;;2.80;99.90;;;2.26;84.42;98497.16;4199894;28;20025;-74
2020/12/05 02:51:44;;;;;;;8.98;6.90;;;2.70;99.90;;;2.27;84.86;98483.97;4199628;28;20029;-74
2020/12/05 02:53:45;;;;;;;11.68;6.85;;;2.80;99.90;;;2.35;85.80;98491.00;4199415;28;20558;-74
2020/12/05 02:55:46;;;;;;;8.55;6.97;;;2.80;99.90;;;2.43;84.57;98485.81;4201425;28;20134;-74
2020/12/05 02:57:47;;;;;;;13.93;8.27;;;2.90;99.90;;;2.33;85.21;98490.34;4202894;28;20495;-74
2020/12/05 02:59:48;;;;;;;11.20;7.75;;;2.80;99.90;;;2.33;85.72;98490.34;4204005;28;20036;-75
2020/12/05 03:01:49;;;;;;;8.65;6.85;;;2.90;99.90;;;2.24;85.21;98487.72;4203848;28;20021;-74
2020/12/05 03:03:50;;;;;;;10.25;7.53;;;2.80;99.90;;;2.33;84.59;98474.75;4199055;28;20504;-74
2020/12/05 03:05:51;;;;;;;10.27;7.72;;;2.90;99.90;;;2.48;84.17;98484.34;4187035;28;20384;-74
2020/12/05 03:07:52;;;;;;;10.63;7.78;;;2.80;99.90;;;2.47;83.90;98469.72;4187386;28;20037;-75
2020/12/05 03:09:53;;;;;;;11.00;7.38;;;2.90;99.90;;;2.36;84.43;98471.81;4186029;28;20102;-74
2020/12/05 03:11:54;;;;;;;10.32;6.80;;;3.00;99.90;;;2.26;85.36;98465.94;4187133;28;20088;-74
2020/12/05 03:13:55;;;;;;;9.68;6.95;;;3.00;99.90;;;2.07;86.68;98465.22;4185999;28;20060;-74
2020/12/05 03:15:56;;;;;;;8.25;5.93;;;2.90;99.90;;;2.18;86.80;98454.53;4186028;28;20116;-74
2020/12/05 03:17:56;;;;;;;8.85;5.85;;;2.90;99.90;;;2.35;87.40;98464.97;4201959;28;20048;-74
2020/12/05 03:19:58;;;;;;;8.27;6.25;;;2.90;99.90;;;2.44;86.39;98459.63;4202531;28;20025;-74
2020/12/05 03:21:59;;;;;;;8.68;5.70;;;3.00;99.90;;;2.53;86.14;98452.66;4202260;28;20116;-74
2020/12/05 03:23:59;;;;;;;6.93;5.72;;;3.10;99.90;;;2.50;86.21;98464.22;4203579;28;20048;-74
2020/12/05 03:26:00;;;;;;;6.82;5.18;;;3.10;99.90;;;2.36;85.94;98458.81;4202197;28;20116;-74
2020/12/05 03:28:01;;;;;;;9.63;5.90;;;3.10;99.90;;;2.42;86.16;98458.97;4202413;28;20059;-74
2020/12/05 03:30:05;;;;;;;8.43;5.70;;;3.10;99.90;;;2.21;85.98;98448.22;4202349;28;20407;-74
2020/12/05 03:34:10;;;;;;;9.70;5.97;;;3.70;99.90;;;2.44;86.86;98449.22;4202105;28;20443;-74
2020/12/05 03:36:11;;;;;;;8.25;6.22;;;3.00;99.90;;;2.53;86.99;98452.66;4201962;28;20024;-74
2020/12/05 03:38:11;;;;;;;7.80;5.80;;;3.10;99.90;;;2.54;87.21;98439.47;4195119;28;20057;-74
2020/12/05 03:40:12;;;;;;;8.32;5.68;;;3.10;99.90;;;2.49;86.50;98449.56;4203308;28;20088;-74
2020/12/05 03:42:13;;;;;;;7.55;5.75;;;3.20;99.90;;;2.55;86.63;98445.50;4203163;28;20076;-74
2020/12/05 03:44:14;;;;;;;7.40;5.80;;;3.20;99.90;;;2.78;85.68;98449.06;4202105;28;20485;-74
2020/12/05 03:46:16;;;;;;;9.00;6.10;;;3.30;99.90;;;2.95;85.43;98448.13;4202010;28;20078;-74
2020/12/05 03:48:17;;;;;;;7.28;5.80;;;3.30;99.90;;;3.00;85.40;98437.19;4202022;28;20028;-74
2020/12/05 03:50:18;;;;;;;5.68;5.03;;;3.40;99.90;;;2.87;85.57;98435.09;4184855;28;20029;-74
2020/12/05 03:52:19;;;;;;;8.15;5.00;;;3.50;99.90;;;3.08;84.17;98442.38;4201973;28;20113;-74
2020/12/05 03:54:20;;;;;;;6.75;5.25;;;3.60;99.90;;;2.81;85.00;98427.94;4201841;28;20029;-74
2020/12/05 03:56:21;;;;;;;7.53;5.13;;;3.50;99.90;;;2.81;85.63;98427.94;4203115;28;20440;-74
2020/12/05 03:58:22;;;;;;;7.18;5.18;;;3.40;99.90;;;2.64;85.91;98437.53;4201779;28;20043;-74
2020/12/05 04:00:23;;;;;;;6.57;4.97;;;3.40;99.90;;;2.85;85.27;98442.25;4201930;28;20070;-74
2020/12/05 04:02:24;;;;;;;7.05;5.15;;;3.40;99.90;;;2.83;85.21;98440.78;4203030;28;20027;-74
2020/12/05 04:04:25;;;;;;;6.60;5.32;;;3.40;99.90;;;3.09;84.03;98451.84;4192856;28;20423;-75
2020/12/05 04:06:26;;;;;;;7.40;5.07;;;3.50;99.90;;;3.13;84.54;98451.38;4185350;28;20064;-74
2020/12/05 04:08:27;;;;;;;9.73;4.53;;;3.60;99.90;;;3.11;84.81;98432.47;4186038;28;20065;-74
2020/12/05 04:10:28;;;;;;;5.45;4.63;;;3.60;99.90;;;3.14;84.37;98439.13;4185181;28;20466;-74
2020/12/05 04:12:29;;;;;;;5.88;5.28;;;3.60;99.90;;;3.11;84.93;98453.28;4185981;28;20061;-74
2020/12/05 04:14:30;;;;;;;6.97;4.40;;;3.60;99.90;;;2.93;85.20;98429.22;4184951;28;20067;-74
2020/12/05 04:16:31;;;;;;;6.75;4.40;;;3.60;99.90;;;2.89;84.99;98435.75;4189682;28;20028;-74
2020/12/05 04:18:32;;;;;;;7.03;5.18;;;3.60;99.90;;;2.80;85.22;98444.53;4201695;28;20028;-74
2020/12/05 04:20:33;;;;;;;6.60;4.90;;;3.60;99.90;;;2.98;84.11;98445.19;4194568;28;20414;-74
2020/12/05 04:22:34;;;;;;;5.18;4.32;;;3.60;99.90;;;2.96;85.07;98456.72;4202721;28;20017;-74
2020/12/05 04:24:36;;;;;;;7.82;5.13;;;3.60;99.90;;;2.83;85.84;98438.19;4201587;28;20433;-74
2020/12/05 04:26:36;;;;;;;7.25;4.40;;;3.50;99.90;;;2.91;85.08;98431.19;4202709;28;20032;-74
2020/12/05 04:28:37;;;;;;;7.60;5.65;;;3.60;99.90;;;3.01;85.72;98452.66;4202667;28;20032;-74
2020/12/05 04:30:38;;;;;;;10.10;4.95;;;3.50;99.90;;;2.91;86.25;98451.19;4201404;28;20056;-74
2020/12/05 04:32:39;;;;;;;5.95;4.57;;;3.60;99.90;;;2.86;86.45;98454.31;4201430;28;20029;-74
2020/12/05 04:34:40;;;;;;;9.93;5.25;;;3.50;99.90;;;3.07;84.89;98461.63;4202418;28;20029;-74
2020/12/05 04:36:41;;;;;;;7.05;4.93;;;3.70;99.90;;;2.77;86.27;98458.69;4201151;28;20056;-74
2020/12/05 04:38:42;;;;;;;9.65;5.55;;;3.50;99.90;;;2.66;87.72;98451.19;4201155;28;20111;-74
2020/12/05 04:40:43;;;;;;;6.30;4.72;;;3.50;99.90;;;2.69;87.79;98442.25;4202295;28;20112;-74
2020/12/05 04:42:49;;;;;;;6.78;5.25;;;3.50;99.90;;;2.79;87.38;98442.91;4217824;28;20024;-74
2020/12/05 04:44:50;;;;;;;7.20;4.95;;;3.50;99.90;;;2.91;87.31;98452.00;4217930;28;20398;-74
2020/12/05 04:46:52;;;;;;;7.40;4.85;;;3.50;99.90;;;2.98;87.46;98455.59;4201122;28;20035;-75
2020/12/05 04:48:54;;;;;;;7.40;4.65;;;3.60;99.90;;;2.89;87.25;98446.16;4200964;28;20028;-74
2020/12/05 04:51:02;;;;;;;7.45;4.63;;;3.50;99.90;;;3.07;87.90;98436.38;4200648;28;20032;-74
2020/12/05 04:53:16;;;;;;;10.98;5.32;;;3.60;99.90;;;2.94;87.52;98435.25;4200881;28;20036;-74
2020/12/05 04:55:21;;;;;;;6.53;4.78;;;3.60;99.90;;;2.94;87.52;98443.88;4201992;28;20064;-74
2020/12/05 04:57:25;;;;;;;8.80;4.80;;;3.60;99.90;;;2.83;87.65;98426.00;4201006;28;20081;-74
2020/12/05 04:59:26;;;;;;;7.10;4.80;;;3.60;99.90;;;2.79;88.46;98412.47;4200809;28;20098;-74
2020/12/05 05:01:32;;;;;;;5.13;3.97;;;3.60;99.90;;;2.95;88.15;98442.09;4200584;28;20029;-74
2020/12/05 05:03:39;;;;;;;6.75;5.38;;;3.60;99.90;;;2.91;88.32;98425.16;4197669;28;20036;-74
2020/12/05 05:05:41;;;;;;;7.00;4.05;;;3.60;99.90;;;2.93;88.46;98418.03;4168611;28;20033;-74
2020/12/05 05:07:53;;;;;;;7.00;4.70;;;3.60;99.90;;;3.22;87.58;98429.53;4200733;28;20024;-74
2020/12/05 05:10:13;;;;;;;6.90;4.70;;;3.70;99.90;;;3.06;87.91;98415.72;4200634;28;20028;-74
2020/12/05 05:12:31;;;;;;;6.22;4.43;;;3.80;99.90;;;3.25;88.19;98426.59;4184380;28;20049;-74
2020/12/05 05:14:35;;;;;;;4.07;3.75;;;3.80;99.90;;;3.09;88.16;98417.97;4184127;28;20033;-74
2020/12/05 05:16:36;;;;;;;8.85;4.50;;;3.80;99.90;;;3.26;87.63;98415.19;4187917;28;20020;-74
2020/12/05 05:18:36;;;;;;;6.75;4.50;;;3.90;99.90;;;3.28;87.68;98425.44;4190868;28;20104;-74
2020/12/05 05:20:43;;;;;;;6.20;4.45;;;3.90;99.90;;;3.32;88.64;98405.88;4200456;28;20025;-74
2020/12/05 05:22:44;;;;;;;6.82;3.67;;;4.00;99.90;;;3.37;87.28;98401.00;4200547;28;20024;-74
2020/12/05 05:25:06;;;;;;;10.98;4.70;;;3.90;99.90;;;3.51;87.58;98412.50;4201916;28;20107;-74
2020/12/05 05:27:08;;;;;;;5.90;3.58;;;4.00;99.90;;;3.49;88.19;98410.09;4200651;28;20028;-74
2020/12/05 05:29:27;;;;;;;7.68;3.60;;;4.00;99.90;;;3.55;87.64;98408.59;4200464;28;20024;-74
2020/12/05 05:31:51;;;;;;;4.15;3.03;;;4.20;99.90;;;3.60;88.67;98414.09;4201725;28;20115;-74
2020/12/05 05:33:54;;;;;;;5.60;3.83;;;4.20;99.90;;;3.52;88.42;98414.97;4202245;28;20368;-75
2020/12/05 05:35:55;;;;;;;5.80;3.38;;;4.20;99.90;;;3.55;89.06;98408.59;4216877;28;20021;-75
2020/12/05 05:37:56;;;;;;;5.03;3.22;;;4.20;99.90;;;3.62;88.01;98425.16;4217300;28;20453;-74
2020/12/05 05:39:57;;;;;;;5.88;4.05;;;4.10;99.90;;;3.54;87.93;98406.94;4200472;28;20025;-74
2020/12/05 05:41:58;;;;;;;4.40;3.30;;;4.20;99.90;;;3.51;88.69;98409.91;4196749;28;20036;-74
2020/12/05 05:44:11;;;;;;;3.58;2.97;;;4.20;99.90;;;3.69;89.27;98416.50;4200405;28;20033;-74
2020/12/05 05:46:24;;;;;;;4.28;3.53;;;4.20;99.90;;;3.85;87.02;98407.81;4201741;28;20150;-74
2020/12/05 05:48:25;;;;;;;5.15;3.05;;;4.30;99.90;;;3.67;87.52;98391.59;4200428;28;20051;-74
2020/12/05 05:50:34;;;;;;;5.05;2.88;;;4.40;99.90;;;3.85;87.31;98400.78;4199984;28;20044;-74
2020/12/05 05:52:35;;;;;;;6.63;3.05;;;4.40;99.90;;;3.86;87.84;98388.56;4190767;28;20024;-74
2020/12/05 05:54:37;;;;;;;6.10;3.05;;;4.50;99.90;;;3.73;87.46;98407.34;4200027;28;20036;-74
2020/12/05 05:56:38;;;;;;;3.97;3.05;;;4.40;99.90;;;3.82;88.09;98400.34;4201515;28;20025;-74
2020/12/05 05:58:41;;;;;;;5.28;2.70;;;4.50;99.90;;;3.72;88.51;98389.28;4201618;28;20024;-74
2020/12/05 06:00:47;;;;;;;8.52;3.47;;;4.60;99.90;;;3.83;88.49;98400.16;4200373;28;20034;-74
2020/12/05 06:02:53;;;;;;;5.90;3.28;;;4.50;99.90;;;3.75;89.10;98396.78;4196891;28;20035;-74
2020/12/05 06:04:54;;;;;;;4.15;3.03;;;4.50;99.90;;;3.86;89.63;98402.41;4198780;28;20420;-74
2020/12/05 06:06:59;;;;;;;4.60;3.03;;;4.50;99.90;;;3.91;88.46;98383.66;4200077;28;20060;-74
2020/12/05 06:09:04;;;;;;;5.35;3.38;;;4.60;99.90;;;3.77;89.27;98381.75;4200051;28;20043;-74
2020/12/05 06:11:11;;;;;;;5.50;2.20;;;4.60;99.90;;;4.02;88.61;98385.06;4201447;28;20130;-74
2020/12/05 06:13:18;;;;;;;3.72;2.38;;;4.80;99.90;;;3.97;89.71;98390.00;4199972;28;20079;-74
2020/12/05 06:15:20;;;;;;;3.17;2.15;;;4.70;99.90;;;4.22;88.67;98397.47;4200121;28;20071;-74
2020/12/05 06:17:25;;;;;;;4.95;2.33;;;4.80;99.90;;;3.92;89.19;98383.47;4201108;28;20013;-74
2020/12/05 06:19:26;;;;;;;3.20;2.45;;;4.80;99.90;;;4.07;89.57;98387.94;4201156;28;20024;-74
2020/12/05 06:21:38;;;;;;;3.88;2.80;;;4.80;99.90;;;4.25;88.82;98406.75;4199726;28;20029;-74
2020/12/05 06:23:49;;;;;;;4.53;2.22;;;4.80;99.90;;;4.18;87.90;98390.19;4200225;28;20054;-74
2020/12/05 06:25:53;;;;;;;2.47;2.10;;;4.80;99.90;;;4.19;89.05;98381.34;4200063;28;20036;-74
2020/12/05 06:28:03;;;;;;;3.28;2.75;;;4.80;99.90;;;4.15;89.75;98382.72;4200099;28;20115;-74
2020/12/05 06:30:08;;;;;;;3.17;2.38;;;4.80;99.90;;;4.19;89.20;98376.94;4217129;28;20034;-74
2020/12/05 06:32:09;;;;;;;2.25;2.05;;;4.90;99.90;;;4.45;87.77;98387.84;4204485;28;20036;-74
2020/12/05 06:34:32;;;;;;;3.33;2.05;;;5.00;99.90;;;4.27;89.34;98389.94;4202997;28;20588;-74
2020/12/05 06:36:33;;;;;;;2.88;1.85;;;5.00;99.90;;;4.46;88.90;98407.75;4203160;28;20058;-74
2020/12/05 06:38:34;;;;;;;5.88;2.15;;;5.00;99.90;;;4.38;89.31;98386.94;4204317;28;20024;-74
2020/12/05 06:40:39;;;;;;;2.05;1.75;;;5.10;99.90;;;4.42;88.29;98390.81;4203077;28;20028;-74
2020/12/05 06:42:46;;;;;;;3.15;2.08;;;5.10;99.90;;;4.29;89.58;98374.94;4203033;28;20024;-74
2020/12/05 06:44:47;;;;;;;1.85;1.75;;;5.00;99.90;;;4.38;89.54;98378.31;4204216;28;20032;-74
2020/12/05 06:46:56;;;;;;;2.55;1.77;;;5.10;99.90;;;4.56;88.83;98393.66;4202949;28;20056;-74
2020/12/05 06:48:57;;;;;;;5.60;2.33;;;5.10;99.90;;;4.47;88.53;98374.66;4204083;28;20418;-74
2020/12/05 06:50:59;;;;;;;3.08;1.88;;;5.20;99.90;;;4.42;88.18;98375.16;4204016;28;20029;-74
2020/12/05 06:53:00;;;;;;;2.25;1.90;;;5.20;99.90;;;4.52;87.91;98371.50;4202927;28;20086;-74
2020/12/05 06:55:14;;;;;;;2.95;1.90;;;5.30;99.90;;;4.42;88.70;98380.38;4202730;28;20033;-74
2020/12/05 06:57:15;;;;;;;3.05;1.92;;;5.30;99.90;;;4.41;88.98;98376.16;4202984;28;20049;-74
2020/12/05 06:59:26;;;;;;;4.20;2.13;;;5.30;99.90;;;4.28;89.33;98368.09;4204025;28;20484;-74
2020/12/05 07:01:29;;;;;;;3.85;1.80;;;5.30;99.90;;;4.67;88.58;98386.22;4204026;28;20391;-74
2020/12/05 07:03:31;;;;;;;3.60;1.65;;;5.20;99.90;;;4.61;88.80;98380.88;4195847;28;20024;-73
2020/12/05 07:05:46;;;;;;;5.70;1.80;;;5.30;99.90;;;4.89;88.24;98389.78;4202576;28;20055;-74
2020/12/05 07:07:49;;;;;;;2.28;2.08;;;5.40;99.90;;;4.88;88.42;98394.19;4186299;28;20075;-74
2020/12/05 07:09:50;;;;;;;4.72;1.63;;;5.50;99.90;;;4.74;89.41;98381.94;4203885;28;20090;-73
2020/12/05 07:12:17;;;;;;;3.05;1.60;;;5.50;99.90;;;4.85;89.91;98401.56;4198356;28;20132;-74
2020/12/05 07:14:25;;;;;;;2.70;2.05;;;5.50;99.90;;;4.87;89.71;98413.47;4185053;28;20040;-75
2020/12/05 07:16:28;;;;;;;4.00;1.90;;;5.60;99.90;;;4.91;88.92;98408.69;4187959;28;20029;-75
2020/12/05 07:18:29;;;;;;;3.55;2.25;;;5.60;99.90;;;4.76;89.22;98394.78;4193357;28;20031;-75
2020/12/05 07:20:30;;;;;;;4.45;1.90;;;5.60;99.90;;;4.78;90.49;98403.28;4202012;28;20044;-75
2020/12/05 07:22:31;;;;;;;4.15;1.88;;;5.60;99.90;;;4.81;90.50;98403.72;4201996;28;20029;-75
2020/12/05 07:24:32;;;;;;;4.50;1.90;;;5.60;99.90;;;4.60;91.07;98397.56;4203128;28;20122;-75
2020/12/05 07:26:34;;;;;;;4.72;1.70;;;5.50;99.90;;;4.83;90.70;98387.88;4202419;28;20060;-75
2020/12/05 07:28:35;;;;;;;3.17;1.70;;;5.60;99.90;;;4.66;91.25;98396.84;4202053;28;20029;-75
2020/12/05 07:30:37;;;;;;;3.00;1.80;;;5.60;99.90;;;4.79;91.12;98410.13;4202237;28;20111;-75
2020/12/05 07:32:41;;;;;;;4.72;2.38;;;5.60;99.90;;;4.67;91.35;98393.25;4218882;28;20024;-75
2020/12/05 07:34:42;;;;;;;2.58;1.75;;;5.60;99.90;;;4.81;91.95;98395.06;4202178;28;20044;-74
2020/12/05 07:36:43;;;;;;;5.65;2.20;;;5.60;99.90;;;4.90;91.67;98387.00;4203115;28;20029;-74
2020/12/05 07:38:46;;;;;;;6.60;2.28;;;5.70;99.90;;;4.99;91.29;98399.00;4203332;28;20566;-71
2020/12/05 07:40:47;;;;;;;2.95;2.20;;;5.70;99.90;;;5.07;90.84;98397.28;4202941;28;20024;-75
2020/12/05 07:42:48;;;;;;;5.20;2.15;;;5.70;99.90;;;4.98;90.73;98399.19;4203372;28;20032;-74
2020/12/05 07:44:49;;;;;;;3.25;1.80;;;5.70;99.90;;;5.00;91.34;98418.09;4202120;28;20096;-75
2020/12/05 07:46:50;;;;;;;6.40;2.13;;;5.80;99.90;;;5.06;91.51;98420.00;4202865;28;20033;-75
2020/12/05 07:48:51;;;;;;;3.67;2.65;;;5.70;99.90;;;5.25;90.38;98410.84;4218265;28;20526;-75
2020/12/05 07:50:52;;;;;;;4.45;2.05;;;5.80;99.90;;;5.20;90.46;98413.97;4203072;28;20544;-77
2020/12/05 07:52:53;;;;;;;3.70;1.98;;;5.90;99.90;;;4.95;90.70;98405.56;4202992;28;20083;-74
2020/12/05 07:55:02;;;;;;;2.58;1.83;;;5.90;99.90;;;4.97;91.66;98392.31;4197782;28;20116;-74
2020/12/05 07:57:07;;;;;;;3.60;2.00;;;5.90;99.90;;;5.31;90.65;98413.56;4201412;28;20024;-75
2020/12/05 07:59:07;;;;;;;;;;;5.90;99.90;;;5.17;90.96;98414.31;4198213;28;20021;-76
2020/12/05 08:01:15;;;;;;;3.90;2.15;;;6.00;99.90;;;5.14;91.19;98419.13;4185045;28;20273;-75
2020/12/05 08:04:09;;;;;;;3.63;2.30;;;6.00;99.90;;;5.21;91.61;98431.28;4194722;28;20150;-75
2020/12/05 08:07:02;;;;;;;4.15;2.20;;;6.00;99.90;;;5.22;91.31;98432.09;4129652;28;20030;-75
2020/12/05 08:09:05;;;;;;;5.65;2.53;;;6.10;99.90;;;5.34;91.16;98434.09;4194255;28;20048;-74
2020/12/05 08:11:06;;;;;;;7.28;2.20;;;6.10;99.90;;;5.40;91.60;98435.19;4201676;28;20100;-74
2020/12/05 08:13:24;;;;;;;2.97;2.10;;;6.10;99.90;;;5.31;90.92;98426.63;4184467;28;20431;-75
2020/12/05 08:15:27;;;;;;;2.80;2.03;;;6.10;99.90;;;5.37;91.70;98425.91;4202798;28;20426;-74
2020/12/05 08:17:36;;;;;;;2.78;1.80;;;6.10;99.90;;;5.53;91.12;98423.09;4201474;28;20100;-75
2020/12/05 08:19:42;;;;;;;3.05;1.80;;;6.20;99.90;;;5.56;90.86;98425.34;4200243;28;20029;-75
2020/12/05 08:21:43;;;;;;;5.07;2.00;;;6.30;99.90;;;5.43;92.01;98445.28;4201285;28;20155;-77
2020/12/05 08:23:44;;;;;;;7.07;2.38;;;6.20;99.90;;;5.39;92.68;98438.78;4201577;28;20060;-75
2020/12/05 08:25:49;;;;;;;3.45;1.63;;;6.20;99.90;;;5.49;92.90;98439.34;4202510;28;20088;-74
2020/12/05 08:27:52;;;;;;;5.50;2.45;;;6.20;99.90;;;5.50;92.68;98443.56;4201238;28;20506;-75
2020/12/05 08:29:56;;;;;;;6.40;2.10;;;6.20;99.90;;;5.53;92.93;98448.44;4201409;28;20073;-74
2020/12/05 08:31:57;;;;;;;4.07;2.35;;;6.20;99.90;;;5.57;92.66;98444.47;4201327;28;20025;-72
2020/12/05 08:33:58;;;;;;;5.95;2.95;;;6.20;99.90;;;5.54;92.04;98450.88;4201125;28;20033;-71
2020/12/05 08:35:59;;;;;;;6.63;2.25;;;6.20;99.90;;;5.35;92.65;98438.31;4184251;28;20098;-73
2020/12/05 08:38:03;;;;;;;7.70;2.70;;;6.20;99.90;;;5.33;92.92;98439.50;4202320;28;20552;-74
2020/12/05 08:40:04;;;;;;;2.67;1.80;;;6.20;99.90;;;5.34;93.20;98452.41;4201285;28;20071;-72
2020/12/05 08:42:05;;;;;;;2.83;1.73;;;6.10;99.90;;;5.58;92.33;98465.19;4201068;28;20029;-73
2020/12/05 08:44:12;;;;;;;4.45;2.58;;;6.10;99.90;;;5.70;92.34;98462.16;4200962;28;20028;-74
2020/12/05 08:46:20;;;;;;;10.75;5.10;;;6.20;99.90;;;5.67;92.12;98457.28;4201125;28;20052;-73
2020/12/05 08:48:21;;;;;;;14.15;7.82;;;6.20;99.90;;;5.88;91.48;98478.34;4201104;28;20028;-74
2020/12/05 08:50:35;;;;;;;6.15;3.72;;;6.40;99.90;;;5.78;91.41;98464.69;4200595;28;20067;-74